sensor_id;sensor_type;location;lat;lon;timestamp;pressure;altitude;pressure_sealevel;temperature;humidity
16481;BME280;44634;54.110;12.138;2023-03-05T00:00:12;101313.38;;;5.42;100.00
16481;BME280;44634;54.110;12.138;2023-03-05T00:02:41;101315.97;;;5.86;100.00
16481;BME280;44634;54.110;12.138;2023-03-05T00:05:10;101316.50;;;5.77;100.00
16481;BME280;44634;54.110;12.138;2023-03-05T00:07:38;101321.31;;;5.84;100.00
16481;BME280;44634;54.110;12.138;2023-03-05T00:10:07;101312.94;;;5.63;100.00
16481;BME280;44634;54.110;12.138;2023-03-05T00:12:35;101305.13;;;5.48;100.00
16481;BME280;44634;54.110;12.138;2023-03-05T00:15:03;101296.81;;;5.11;100.00
16481;BME280;44634;54.110;12.138;2023-03-05T00:17:31;101296.25;;;5.50;100.00
16481;BME280;44634;54.110;12.138;2023-03-05T00:19:59;101291.28;;;5.46;100.00
16481;BME280;44634;54.110;12.138;2023-03-05T00:22:29;101280.75;;;5.31;100.00
16481;BME280;44634;54.110;12.138;2023-03-05T00:24:57;101288.31;;;5.66;100.00
16481;BME280;44634;54.110;12.138;2023-03-05T00:27:24;101288.00;;;5.12;100.00
16481;BME280;44634;54.110;12.138;2023-03-05T00:29:52;101271.63;;;5.67;100.00
16481;BME280;44634;54.110;12.138;2023-03-05T00:32:20;101278.91;;;5.48;100.00
16481;BME280;44634;54.110;12.138;2023-03-05T00:34:48;101280.81;;;5.60;100.00
16481;BME280;44634;54.110;12.138;2023-03-05T00:37:16;101267.13;;;5.69;100.00
16481;BME280;44634;54.110;12.138;2023-03-05T00:39:45;101272.00;;;5.61;100.00
16481;BME280;44634;54.110;12.138;2023-03-05T00:42:13;101268.19;;;5.66;100.00
16481;BME280;44634;54.110;12.138;2023-03-05T00:44:40;101269.47;;;5.74;100.00
16481;BME280;44634;54.110;12.138;2023-03-05T00:47:08;101268.44;;;5.76;100.00
16481;BME280;44634;54.110;12.138;2023-03-05T00:49:36;101276.81;;;5.24;100.00
16481;BME280;44634;54.110;12.138;2023-03-05T00:52:04;101277.13;;;5.04;100.00
16481;BME280;44634;54.110;12.138;2023-03-05T00:54:31;101270.66;;;5.40;100.00
16481;BME280;44634;54.110;12.138;2023-03-05T00:57:00;101267.59;;;5.76;100.00
16481;BME280;44634;54.110;12.138;2023-03-05T00:59:28;101282.13;;;5.53;100.00
16481;BME280;44634;54.110;12.138;2023-03-05T01:01:56;101268.69;;;5.29;100.00
16481;BME280;44634;54.110;12.138;2023-03-05T01:04:24;101260.06;;;5.27;100.00
16481;BME280;44634;54.110;12.138;2023-03-05T01:06:52;101266.28;;;5.54;100.00
16481;BME280;44634;54.110;12.138;2023-03-05T01:09:20;101263.06;;;5.35;100.00
16481;BME280;44634;54.110;12.138;2023-03-05T01:11:50;101262.69;;;4.97;100.00
16481;BME280;44634;54.110;12.138;2023-03-05T01:14:20;101260.22;;;5.10;100.00
16481;BME280;44634;54.110;12.138;2023-03-05T01:16:48;101255.50;;;5.45;100.00
16481;BME280;44634;54.110;12.138;2023-03-05T01:19:16;101246.31;;;5.23;100.00
16481;BME280;44634;54.110;12.138;2023-03-05T01:21:43;101246.41;;;5.36;100.00
16481;BME280;44634;54.110;12.138;2023-03-05T01:24:11;101238.63;;;5.49;100.00
16481;BME280;44634;54.110;12.138;2023-03-05T01:26:39;101236.50;;;5.41;100.00
16481;BME280;44634;54.110;12.138;2023-03-05T01:29:07;101228.44;;;5.73;97.78
16481;BME280;44634;54.110;12.138;2023-03-05T01:31:36;101236.19;;;5.88;99.48
16481;BME280;44634;54.110;12.138;2023-03-05T01:34:04;101232.38;;;5.51;94.41
16481;BME280;44634;54.110;12.138;2023-03-05T01:36:31;101231.03;;;5.30;94.43
16481;BME280;44634;54.110;12.138;2023-03-05T01:38:59;101240.25;;;4.77;90.74
16481;BME280;44634;54.110;12.138;2023-03-05T01:41:28;101228.66;;;5.11;83.06
16481;BME280;44634;54.110;12.138;2023-03-05T01:43:55;101227.00;;;5.24;77.82
16481;BME280;44634;54.110;12.138;2023-03-05T01:46:29;101219.59;;;4.87;79.92
16481;BME280;44634;54.110;12.138;2023-03-05T01:49:02;101211.31;;;5.67;79.23
16481;BME280;44634;54.110;12.138;2023-03-05T01:51:35;101222.16;;;5.47;78.17
16481;BME280;44634;54.110;12.138;2023-03-05T01:54:05;101199.59;;;5.58;83.45
16481;BME280;44634;54.110;12.138;2023-03-05T01:56:34;101210.25;;;5.27;87.58
16481;BME280;44634;54.110;12.138;2023-03-05T01:59:02;101211.22;;;5.54;91.69
16481;BME280;44634;54.110;12.138;2023-03-05T02:01:32;101207.91;;;4.78;90.94
16481;BME280;44634;54.110;12.138;2023-03-05T02:04:03;101207.28;;;5.03;91.34
16481;BME280;44634;54.110;12.138;2023-03-05T02:06:32;101202.41;;;5.41;89.74
16481;BME280;44634;54.110;12.138;2023-03-05T02:09:00;101199.09;;;5.09;93.34
16481;BME280;44634;54.110;12.138;2023-03-05T02:11:28;101206.06;;;5.38;92.28
16481;BME280;44634;54.110;12.138;2023-03-05T02:13:56;101200.03;;;5.22;92.80
16481;BME280;44634;54.110;12.138;2023-03-05T02:16:24;101198.53;;;5.18;94.95
16481;BME280;44634;54.110;12.138;2023-03-05T02:18:52;101196.59;;;4.92;94.91
16481;BME280;44634;54.110;12.138;2023-03-05T02:21:28;101185.25;;;5.07;99.50
16481;BME280;44634;54.110;12.138;2023-03-05T02:24:02;101181.88;;;5.33;97.26
16481;BME280;44634;54.110;12.138;2023-03-05T02:26:30;101185.44;;;5.32;96.09
16481;BME280;44634;54.110;12.138;2023-03-05T02:29:00;101181.41;;;5.13;95.87
16481;BME280;44634;54.110;12.138;2023-03-05T02:31:28;101180.84;;;5.07;90.31
16481;BME280;44634;54.110;12.138;2023-03-05T02:33:56;101180.69;;;4.81;90.03
16481;BME280;44634;54.110;12.138;2023-03-05T02:36:24;101179.22;;;5.19;84.25
16481;BME280;44634;54.110;12.138;2023-03-05T02:38:54;101181.84;;;5.05;81.39
16481;BME280;44634;54.110;12.138;2023-03-05T02:41:22;101181.59;;;5.10;79.67
16481;BME280;44634;54.110;12.138;2023-03-05T02:43:51;101165.69;;;5.27;76.40
16481;BME280;44634;54.110;12.138;2023-03-05T02:46:19;101172.31;;;5.18;70.99
16481;BME280;44634;54.110;12.138;2023-03-05T02:48:46;101160.44;;;5.13;72.24
16481;BME280;44634;54.110;12.138;2023-03-05T02:51:15;101154.44;;;5.25;73.88
16481;BME280;44634;54.110;12.138;2023-03-05T02:53:43;101153.59;;;5.53;76.25
16481;BME280;44634;54.110;12.138;2023-03-05T02:56:12;101157.56;;;4.87;79.80
16481;BME280;44634;54.110;12.138;2023-03-05T02:58:40;101154.66;;;4.92;80.41
16481;BME280;44634;54.110;12.138;2023-03-05T03:01:08;101152.47;;;5.14;83.28
16481;BME280;44634;54.110;12.138;2023-03-05T03:03:36;101154.41;;;4.96;85.42
16481;BME280;44634;54.110;12.138;2023-03-05T03:06:05;101143.88;;;5.26;90.29
16481;BME280;44634;54.110;12.138;2023-03-05T03:08:33;101144.69;;;5.13;95.16
16481;BME280;44634;54.110;12.138;2023-03-05T03:11:05;101143.75;;;4.99;90.87
16481;BME280;44634;54.110;12.138;2023-03-05T03:13:34;101137.47;;;5.45;87.73
16481;BME280;44634;54.110;12.138;2023-03-05T03:16:03;101130.84;;;5.11;86.09
16481;BME280;44634;54.110;12.138;2023-03-05T03:18:32;101133.06;;;4.88;85.14
16481;BME280;44634;54.110;12.138;2023-03-05T03:21:00;101128.97;;;5.13;76.15
16481;BME280;44634;54.110;12.138;2023-03-05T03:23:28;101128.47;;;5.49;75.10
16481;BME280;44634;54.110;12.138;2023-03-05T03:25:56;101130.84;;;5.25;76.64
16481;BME280;44634;54.110;12.138;2023-03-05T03:28:24;101121.09;;;5.41;77.10
16481;BME280;44634;54.110;12.138;2023-03-05T03:30:53;101124.00;;;5.65;74.95
16481;BME280;44634;54.110;12.138;2023-03-05T03:33:21;101105.38;;;4.98;78.18
16481;BME280;44634;54.110;12.138;2023-03-05T03:35:49;101132.81;;;4.93;79.08
16481;BME280;44634;54.110;12.138;2023-03-05T03:38:17;101120.25;;;4.98;78.03
16481;BME280;44634;54.110;12.138;2023-03-05T03:40:45;101131.53;;;4.70;75.05
16481;BME280;44634;54.110;12.138;2023-03-05T03:43:12;101120.69;;;4.46;79.79
16481;BME280;44634;54.110;12.138;2023-03-05T03:45:41;101122.56;;;4.88;81.28
16481;BME280;44634;54.110;12.138;2023-03-05T03:48:10;101119.09;;;4.73;81.23
16481;BME280;44634;54.110;12.138;2023-03-05T03:50:38;101115.78;;;4.56;77.27
16481;BME280;44634;54.110;12.138;2023-03-05T03:53:07;101104.16;;;4.45;75.78
16481;BME280;44634;54.110;12.138;2023-03-05T03:55:35;101099.91;;;4.73;79.33
16481;BME280;44634;54.110;12.138;2023-03-05T03:58:02;101104.31;;;4.72;83.82
16481;BME280;44634;54.110;12.138;2023-03-05T04:00:30;101083.47;;;4.85;86.03
16481;BME280;44634;54.110;12.138;2023-03-05T04:02:58;101095.00;;;4.97;87.40
16481;BME280;44634;54.110;12.138;2023-03-05T04:05:27;101091.50;;;4.68;88.16
16481;BME280;44634;54.110;12.138;2023-03-05T04:07:56;101085.66;;;4.63;90.82
16481;BME280;44634;54.110;12.138;2023-03-05T04:10:25;101091.47;;;4.54;88.91
16481;BME280;44634;54.110;12.138;2023-03-05T04:12:53;101084.28;;;4.71;84.04
16481;BME280;44634;54.110;12.138;2023-03-05T04:15:20;101089.91;;;4.65;79.45
16481;BME280;44634;54.110;12.138;2023-03-05T04:17:48;101082.34;;;4.89;77.64
16481;BME280;44634;54.110;12.138;2023-03-05T04:20:16;101081.47;;;4.30;75.42
16481;BME280;44634;54.110;12.138;2023-03-05T04:22:45;101074.56;;;4.73;69.02
16481;BME280;44634;54.110;12.138;2023-03-05T04:25:13;101077.19;;;4.88;70.81
16481;BME280;44634;54.110;12.138;2023-03-05T04:27:41;101072.31;;;4.67;71.50
16481;BME280;44634;54.110;12.138;2023-03-05T04:30:12;101077.34;;;4.56;72.00
16481;BME280;44634;54.110;12.138;2023-03-05T04:32:40;101076.56;;;4.40;77.36
16481;BME280;44634;54.110;12.138;2023-03-05T04:35:08;101067.56;;;4.30;77.63
16481;BME280;44634;54.110;12.138;2023-03-05T04:37:36;101077.06;;;4.01;81.30
16481;BME280;44634;54.110;12.138;2023-03-05T04:40:06;101066.72;;;4.88;79.00
16481;BME280;44634;54.110;12.138;2023-03-05T04:42:34;101077.31;;;4.42;77.63
16481;BME280;44634;54.110;12.138;2023-03-05T04:45:03;101073.19;;;4.08;77.63
16481;BME280;44634;54.110;12.138;2023-03-05T04:47:32;101070.53;;;3.94;85.32
16481;BME280;44634;54.110;12.138;2023-03-05T04:50:00;101077.06;;;4.01;90.22
16481;BME280;44634;54.110;12.138;2023-03-05T04:52:28;101075.97;;;4.05;91.80
16481;BME280;44634;54.110;12.138;2023-03-05T04:54:56;101075.50;;;4.28;92.05
16481;BME280;44634;54.110;12.138;2023-03-05T04:57:25;101070.06;;;4.01;93.49
16481;BME280;44634;54.110;12.138;2023-03-05T04:59:53;101073.28;;;4.06;91.12
16481;BME280;44634;54.110;12.138;2023-03-05T05:02:21;101070.41;;;4.11;90.08
16481;BME280;44634;54.110;12.138;2023-03-05T05:04:51;101073.66;;;4.44;87.79
16481;BME280;44634;54.110;12.138;2023-03-05T05:07:19;101069.00;;;4.05;88.34
16481;BME280;44634;54.110;12.138;2023-03-05T05:09:47;101068.97;;;4.80;80.55
16481;BME280;44634;54.110;12.138;2023-03-05T05:12:15;101080.13;;;4.09;80.57
16481;BME280;44634;54.110;12.138;2023-03-05T05:14:45;101079.31;;;4.53;78.09
16481;BME280;44634;54.110;12.138;2023-03-05T05:17:12;101083.00;;;4.64;76.07
16481;BME280;44634;54.110;12.138;2023-03-05T05:19:40;101087.00;;;4.70;75.77
16481;BME280;44634;54.110;12.138;2023-03-05T05:22:08;101076.03;;;4.19;82.85
16481;BME280;44634;54.110;12.138;2023-03-05T05:24:36;101090.00;;;4.34;82.96
16481;BME280;44634;54.110;12.138;2023-03-05T05:27:03;101082.41;;;4.29;86.05
16481;BME280;44634;54.110;12.138;2023-03-05T05:29:31;101079.13;;;4.56;83.93
16481;BME280;44634;54.110;12.138;2023-03-05T05:32:00;101083.13;;;4.17;85.89
16481;BME280;44634;54.110;12.138;2023-03-05T05:34:28;101083.81;;;4.05;83.92
16481;BME280;44634;54.110;12.138;2023-03-05T05:36:56;101084.00;;;4.02;84.60
16481;BME280;44634;54.110;12.138;2023-03-05T05:39:23;101086.59;;;4.02;81.94
16481;BME280;44634;54.110;12.138;2023-03-05T05:41:52;101066.34;;;4.21;83.33
16481;BME280;44634;54.110;12.138;2023-03-05T05:44:19;101070.31;;;4.42;84.32
16481;BME280;44634;54.110;12.138;2023-03-05T05:46:47;101076.72;;;4.67;85.62
16481;BME280;44634;54.110;12.138;2023-03-05T05:49:16;101079.13;;;4.26;85.65
16481;BME280;44634;54.110;12.138;2023-03-05T05:51:44;101081.06;;;3.92;87.68
16481;BME280;44634;54.110;12.138;2023-03-05T05:54:13;101072.72;;;4.45;84.06
16481;BME280;44634;54.110;12.138;2023-03-05T05:56:41;101071.94;;;4.59;83.90
16481;BME280;44634;54.110;12.138;2023-03-05T05:59:09;101075.44;;;4.14;85.93
16481;BME280;44634;54.110;12.138;2023-03-05T06:01:37;101076.00;;;3.89;88.23
16481;BME280;44634;54.110;12.138;2023-03-05T06:04:04;101066.31;;;3.91;88.01
16481;BME280;44634;54.110;12.138;2023-03-05T06:06:34;101079.09;;;4.11;85.53
16481;BME280;44634;54.110;12.138;2023-03-05T06:09:02;101081.38;;;4.02;87.93
16481;BME280;44634;54.110;12.138;2023-03-05T06:11:30;101080.22;;;4.37;84.77
16481;BME280;44634;54.110;12.138;2023-03-05T06:13:59;101079.81;;;3.83;84.72
16481;BME280;44634;54.110;12.138;2023-03-05T06:16:28;101084.66;;;4.21;81.66
16481;BME280;44634;54.110;12.138;2023-03-05T06:18:56;101083.31;;;4.14;78.29
16481;BME280;44634;54.110;12.138;2023-03-05T06:21:25;101075.25;;;4.17;80.18
16481;BME280;44634;54.110;12.138;2023-03-05T06:23:54;101081.03;;;4.08;79.02
16481;BME280;44634;54.110;12.138;2023-03-05T06:26:24;101072.66;;;4.17;72.69
16481;BME280;44634;54.110;12.138;2023-03-05T06:28:52;101086.41;;;3.91;75.72
16481;BME280;44634;54.110;12.138;2023-03-05T06:31:21;101081.44;;;4.16;75.87
16481;BME280;44634;54.110;12.138;2023-03-05T06:33:51;101085.53;;;4.06;77.84
16481;BME280;44634;54.110;12.138;2023-03-05T06:36:21;101084.63;;;3.91;75.85
16481;BME280;44634;54.110;12.138;2023-03-05T06:38:50;101073.72;;;3.99;73.39
16481;BME280;44634;54.110;12.138;2023-03-05T06:41:21;101082.97;;;4.20;68.76
16481;BME280;44634;54.110;12.138;2023-03-05T06:43:49;101079.63;;;4.76;65.59
16481;BME280;44634;54.110;12.138;2023-03-05T06:46:19;101086.53;;;4.33;65.60
16481;BME280;44634;54.110;12.138;2023-03-05T06:48:48;101087.59;;;4.45;61.70
16481;BME280;44634;54.110;12.138;2023-03-05T06:51:18;101094.56;;;4.30;61.74
16481;BME280;44634;54.110;12.138;2023-03-05T06:53:46;101089.97;;;4.20;62.31
16481;BME280;44634;54.110;12.138;2023-03-05T06:56:15;101087.22;;;4.07;60.98
16481;BME280;44634;54.110;12.138;2023-03-05T06:58:47;101086.56;;;4.17;61.74
16481;BME280;44634;54.110;12.138;2023-03-05T07:01:15;101083.53;;;4.69;60.33
16481;BME280;44634;54.110;12.138;2023-03-05T07:03:44;101095.81;;;4.39;62.58
16481;BME280;44634;54.110;12.138;2023-03-05T07:06:13;101095.22;;;4.20;62.81
16481;BME280;44634;54.110;12.138;2023-03-05T07:08:41;101099.75;;;4.46;58.25
16481;BME280;44634;54.110;12.138;2023-03-05T07:11:10;101095.31;;;4.62;55.84
16481;BME280;44634;54.110;12.138;2023-03-05T07:13:38;101102.13;;;4.51;54.04
16481;BME280;44634;54.110;12.138;2023-03-05T07:16:09;101101.66;;;3.98;52.50
16481;BME280;44634;54.110;12.138;2023-03-05T07:18:37;101088.19;;;4.04;55.13
16481;BME280;44634;54.110;12.138;2023-03-05T07:21:05;101091.88;;;4.76;53.42
16481;BME280;44634;54.110;12.138;2023-03-05T07:23:34;101099.53;;;4.65;55.17
16481;BME280;44634;54.110;12.138;2023-03-05T07:26:04;101104.97;;;4.76;56.52
16481;BME280;44634;54.110;12.138;2023-03-05T07:28:33;101093.53;;;4.48;56.85
16481;BME280;44634;54.110;12.138;2023-03-05T07:31:03;101097.22;;;4.89;54.84
16481;BME280;44634;54.110;12.138;2023-03-05T07:33:33;101102.28;;;4.92;53.09
16481;BME280;44634;54.110;12.138;2023-03-05T07:36:03;101108.38;;;4.92;52.04
16481;BME280;44634;54.110;12.138;2023-03-05T07:38:30;101093.47;;;4.34;52.19
16481;BME280;44634;54.110;12.138;2023-03-05T07:41:01;101102.56;;;4.87;51.15
16481;BME280;44634;54.110;12.138;2023-03-05T07:43:29;101095.91;;;4.67;52.07
16481;BME280;44634;54.110;12.138;2023-03-05T07:45:57;101085.53;;;4.94;51.73
16481;BME280;44634;54.110;12.138;2023-03-05T07:48:25;101084.72;;;5.08;51.34
16481;BME280;44634;54.110;12.138;2023-03-05T07:51:01;101089.75;;;5.11;50.66
16481;BME280;44634;54.110;12.138;2023-03-05T07:53:29;101082.44;;;5.02;49.16
16481;BME280;44634;54.110;12.138;2023-03-05T07:55:57;101090.66;;;4.67;50.16
16481;BME280;44634;54.110;12.138;2023-03-05T07:58:24;101076.56;;;5.13;49.05
16481;BME280;44634;54.110;12.138;2023-03-05T08:00:52;101075.91;;;4.81;48.89
16481;BME280;44634;54.110;12.138;2023-03-05T08:03:20;101085.72;;;5.05;49.31
16481;BME280;44634;54.110;12.138;2023-03-05T08:05:48;101078.25;;;4.99;50.40
16481;BME280;44634;54.110;12.138;2023-03-05T08:08:17;101075.72;;;5.12;49.61
16481;BME280;44634;54.110;12.138;2023-03-05T08:10:45;101069.56;;;6.22;47.59
16481;BME280;44634;54.110;12.138;2023-03-05T08:13:13;101071.94;;;7.03;44.25
16481;BME280;44634;54.110;12.138;2023-03-05T08:15:40;101077.06;;;5.87;45.33
16481;BME280;44634;54.110;12.138;2023-03-05T08:18:08;101088.53;;;5.31;47.14
16481;BME280;44634;54.110;12.138;2023-03-05T08:20:36;101084.31;;;5.84;46.72
16481;BME280;44634;54.110;12.138;2023-03-05T08:23:04;101080.97;;;6.21;46.99
16481;BME280;44634;54.110;12.138;2023-03-05T08:25:33;101066.84;;;6.49;46.56
16481;BME280;44634;54.110;12.138;2023-03-05T08:28:01;101071.00;;;6.66;46.86
16481;BME280;44634;54.110;12.138;2023-03-05T08:30:28;101072.59;;;6.81;43.89
16481;BME280;44634;54.110;12.138;2023-03-05T08:32:56;101073.06;;;7.61;41.05
16481;BME280;44634;54.110;12.138;2023-03-05T08:35:24;101064.28;;;7.37;41.33
16481;BME280;44634;54.110;12.138;2023-03-05T08:37:52;101068.66;;;7.62;40.22
16481;BME280;44634;54.110;12.138;2023-03-05T08:40:19;101068.13;;;7.07;41.45
16481;BME280;44634;54.110;12.138;2023-03-05T08:42:49;101076.25;;;6.66;41.51
16481;BME280;44634;54.110;12.138;2023-03-05T08:45:17;101068.38;;;6.14;43.70
16481;BME280;44634;54.110;12.138;2023-03-05T08:47:45;101071.50;;;6.59;42.62
16481;BME280;44634;54.110;12.138;2023-03-05T08:50:13;101063.69;;;7.33;41.58
16481;BME280;44634;54.110;12.138;2023-03-05T08:52:40;101053.03;;;6.85;41.72
16481;BME280;44634;54.110;12.138;2023-03-05T08:55:10;101064.59;;;6.96;41.61
16481;BME280;44634;54.110;12.138;2023-03-05T08:57:37;101056.81;;;6.81;41.73
16481;BME280;44634;54.110;12.138;2023-03-05T09:00:08;101064.97;;;7.15;41.74
16481;BME280;44634;54.110;12.138;2023-03-05T09:02:38;101053.97;;;7.46;41.12
16481;BME280;44634;54.110;12.138;2023-03-05T09:05:06;101064.91;;;7.77;39.88
16481;BME280;44634;54.110;12.138;2023-03-05T09:07:34;101065.84;;;6.90;40.20
16481;BME280;44634;54.110;12.138;2023-03-05T09:10:04;101059.31;;;6.70;41.31
16481;BME280;44634;54.110;12.138;2023-03-05T09:12:32;101060.91;;;7.11;40.62
16481;BME280;44634;54.110;12.138;2023-03-05T09:14:59;101060.78;;;7.49;41.43
16481;BME280;44634;54.110;12.138;2023-03-05T09:17:28;101052.31;;;8.52;39.44
16481;BME280;44634;54.110;12.138;2023-03-05T09:19:56;101045.16;;;9.33;38.73
16481;BME280;44634;54.110;12.138;2023-03-05T09:22:24;101055.16;;;8.14;38.37
16481;BME280;44634;54.110;12.138;2023-03-05T09:24:52;101059.66;;;8.82;37.56
16481;BME280;44634;54.110;12.138;2023-03-05T09:27:20;101043.41;;;9.00;38.35
16481;BME280;44634;54.110;12.138;2023-03-05T09:29:49;101049.50;;;10.09;36.13
16481;BME280;44634;54.110;12.138;2023-03-05T09:32:17;101052.13;;;8.07;39.93
16481;BME280;44634;54.110;12.138;2023-03-05T09:34:47;101043.16;;;9.14;38.69
16481;BME280;44634;54.110;12.138;2023-03-05T09:37:14;101054.69;;;7.12;41.03
16481;BME280;44634;54.110;12.138;2023-03-05T09:39:42;101052.25;;;8.87;37.45
16481;BME280;44634;54.110;12.138;2023-03-05T09:42:27;101042.84;;;7.91;40.22
16481;BME280;44634;54.110;12.138;2023-03-05T09:45:04;101041.81;;;9.19;38.72
16481;BME280;44634;54.110;12.138;2023-03-05T09:47:44;101055.41;;;7.27;40.78
16481;BME280;44634;54.110;12.138;2023-03-05T09:50:33;101045.97;;;8.55;38.31
16481;BME280;44634;54.110;12.138;2023-03-05T09:53:09;101050.84;;;7.65;40.16
16481;BME280;44634;54.110;12.138;2023-03-05T09:55:41;101061.72;;;7.24;42.22
16481;BME280;44634;54.110;12.138;2023-03-05T09:58:13;101061.06;;;5.78;44.75
16481;BME280;44634;54.110;12.138;2023-03-05T10:00:43;101060.44;;;5.74;43.89
16481;BME280;44634;54.110;12.138;2023-03-05T10:03:16;101052.06;;;6.74;42.93
16481;BME280;44634;54.110;12.138;2023-03-05T10:05:59;101040.44;;;7.27;42.87
16481;BME280;44634;54.110;12.138;2023-03-05T10:08:36;101035.19;;;8.23;41.58
16481;BME280;44634;54.110;12.138;2023-03-05T10:11:17;101031.84;;;8.56;39.96
16481;BME280;44634;54.110;12.138;2023-03-05T10:13:49;101022.75;;;10.13;37.64
16481;BME280;44634;54.110;12.138;2023-03-05T10:16:34;101031.94;;;8.43;39.39
16481;BME280;44634;54.110;12.138;2023-03-05T10:19:13;101030.47;;;10.68;36.58
16481;BME280;44634;54.110;12.138;2023-03-05T10:21:51;101024.88;;;9.88;36.34
16481;BME280;44634;54.110;12.138;2023-03-05T10:24:24;101028.81;;;8.49;38.46
16481;BME280;44634;54.110;12.138;2023-03-05T10:26:58;101034.22;;;8.24;39.91
16481;BME280;44634;54.110;12.138;2023-03-05T10:29:42;101026.88;;;9.63;38.63
16481;BME280;44634;54.110;12.138;2023-03-05T10:32:20;101034.16;;;9.05;38.86
16481;BME280;44634;54.110;12.138;2023-03-05T10:35:04;101030.09;;;9.67;37.25
16481;BME280;44634;54.110;12.138;2023-03-05T10:37:53;101032.47;;;9.04;37.90
16481;BME280;44634;54.110;12.138;2023-03-05T10:40:29;101025.53;;;7.99;37.88
16481;BME280;44634;54.110;12.138;2023-03-05T10:43:05;101015.56;;;8.73;39.47
16481;BME280;44634;54.110;12.138;2023-03-05T10:45:38;101018.28;;;9.39;36.55
16481;BME280;44634;54.110;12.138;2023-03-05T10:48:13;101024.22;;;8.86;37.14
16481;BME280;44634;54.110;12.138;2023-03-05T10:50:45;101027.41;;;8.21;38.08
16481;BME280;44634;54.110;12.138;2023-03-05T10:53:19;101011.75;;;9.65;37.93
16481;BME280;44634;54.110;12.138;2023-03-05T10:55:51;101017.41;;;10.25;37.25
16481;BME280;44634;54.110;12.138;2023-03-05T10:58:23;101017.25;;;11.39;35.00
16481;BME280;44634;54.110;12.138;2023-03-05T11:00:59;101012.00;;;11.48;34.12
16481;BME280;44634;54.110;12.138;2023-03-05T11:03:45;101020.19;;;10.23;33.69
16481;BME280;44634;54.110;12.138;2023-03-05T11:06:14;101019.28;;;8.59;37.51
16481;BME280;44634;54.110;12.138;2023-03-05T11:08:44;101007.56;;;9.95;37.72
16481;BME280;44634;54.110;12.138;2023-03-05T11:11:14;101002.00;;;10.71;36.14
16481;BME280;44634;54.110;12.138;2023-03-05T11:13:51;101003.53;;;9.47;38.78
16481;BME280;44634;54.110;12.138;2023-03-05T11:16:22;101011.84;;;8.64;38.74
16481;BME280;44634;54.110;12.138;2023-03-05T11:19:14;100998.97;;;9.81;37.42
16481;BME280;44634;54.110;12.138;2023-03-05T11:21:44;100998.97;;;10.34;36.92
16481;BME280;44634;54.110;12.138;2023-03-05T11:24:17;101012.31;;;10.54;33.91
16481;BME280;44634;54.110;12.138;2023-03-05T11:26:48;101006.50;;;10.18;35.12
16481;BME280;44634;54.110;12.138;2023-03-05T11:29:19;100992.50;;;9.42;37.82
16481;BME280;44634;54.110;12.138;2023-03-05T11:31:48;100992.09;;;10.11;37.21
16481;BME280;44634;54.110;12.138;2023-03-05T11:34:37;100989.13;;;10.36;35.61
16481;BME280;44634;54.110;12.138;2023-03-05T11:37:09;100987.13;;;9.76;36.96
16481;BME280;44634;54.110;12.138;2023-03-05T11:39:47;100987.75;;;8.91;36.67
16481;BME280;44634;54.110;12.138;2023-03-05T11:42:18;100990.16;;;9.06;38.87
16481;BME280;44634;54.110;12.138;2023-03-05T11:44:51;100980.41;;;11.07;35.34
16481;BME280;44634;54.110;12.138;2023-03-05T11:47:25;100975.53;;;11.81;33.97
16481;BME280;44634;54.110;12.138;2023-03-05T11:50:00;100977.34;;;11.80;33.97
16481;BME280;44634;54.110;12.138;2023-03-05T11:52:31;100982.16;;;10.87;34.40
16481;BME280;44634;54.110;12.138;2023-03-05T11:55:06;100969.22;;;10.93;35.97
16481;BME280;44634;54.110;12.138;2023-03-05T11:57:41;100970.47;;;10.89;33.88
16481;BME280;44634;54.110;12.138;2023-03-05T12:00:15;100968.22;;;10.33;34.87
16481;BME280;44634;54.110;12.138;2023-03-05T12:02:46;100968.38;;;10.62;35.26
16481;BME280;44634;54.110;12.138;2023-03-05T12:05:17;100970.88;;;10.94;33.46
16481;BME280;44634;54.110;12.138;2023-03-05T12:07:47;100965.97;;;11.30;32.65
16481;BME280;44634;54.110;12.138;2023-03-05T12:10:20;100970.72;;;10.14;33.66
16481;BME280;44634;54.110;12.138;2023-03-05T12:12:53;100964.78;;;11.73;32.76
16481;BME280;44634;54.110;12.138;2023-03-05T12:15:37;100943.41;;;12.13;32.80
16481;BME280;44634;54.110;12.138;2023-03-05T12:18:15;100943.59;;;12.02;33.07
16481;BME280;44634;54.110;12.138;2023-03-05T12:20:49;100950.88;;;11.11;32.99
16481;BME280;44634;54.110;12.138;2023-03-05T12:23:21;100944.72;;;11.80;32.98
16481;BME280;44634;54.110;12.138;2023-03-05T12:25:52;100941.47;;;11.38;32.37
16481;BME280;44634;54.110;12.138;2023-03-05T12:31:37;100937.44;;;11.43;33.56
16481;BME280;44634;54.110;12.138;2023-03-05T12:34:33;100934.81;;;10.11;35.39
16481;BME280;44634;54.110;12.138;2023-03-05T12:37:01;100939.34;;;10.72;31.62
16481;BME280;44634;54.110;12.138;2023-03-05T12:39:47;100947.28;;;10.41;31.98
16481;BME280;44634;54.110;12.138;2023-03-05T12:45:26;100928.38;;;11.65;30.28
16481;BME280;44634;54.110;12.138;2023-03-05T12:51:00;100928.03;;;9.98;34.87
16481;BME280;44634;54.110;12.138;2023-03-05T12:53:27;100915.22;;;12.31;33.51
16481;BME280;44634;54.110;12.138;2023-03-05T12:56:00;100921.69;;;11.32;32.03
16481;BME280;44634;54.110;12.138;2023-03-05T12:58:37;100922.81;;;10.49;32.04
16481;BME280;44634;54.110;12.138;2023-03-05T13:01:15;100938.16;;;8.52;33.39
16481;BME280;44634;54.110;12.138;2023-03-05T13:03:52;100927.84;;;8.38;34.34
16481;BME280;44634;54.110;12.138;2023-03-05T13:06:26;100915.03;;;9.32;33.88
16481;BME280;44634;54.110;12.138;2023-03-05T13:08:56;100923.22;;;8.06;36.92
16481;BME280;44634;54.110;12.138;2023-03-05T13:11:25;100922.47;;;7.93;35.05